sensor_id;sensor_type;location;lat;lon;timestamp;P1;durP1;ratioP1;P2;durP2;ratioP2
6249;SDS011;3158;52.148;11.568;2022-10-22T00:04:05;2.67;;;2.47;;
6249;SDS011;3158;52.148;11.568;2022-10-22T00:09:07;3.75;;;2.33;;
6249;SDS011;3158;52.148;11.568;2022-10-22T00:14:08;2.70;;;2.50;;
6249;SDS011;3158;52.148;11.568;2022-10-22T00:19:09;2.38;;;2.28;;
6249;SDS011;3158;52.148;11.568;2022-10-22T00:24:12;2.60;;;2.50;;
6249;SDS011;3158;52.148;11.568;2022-10-22T00:29:14;2.53;;;2.33;;
6249;SDS011;3158;52.148;11.568;2022-10-22T00:34:19;2.65;;;2.55;;
6249;SDS011;3158;52.148;11.568;2022-10-22T00:39:21;3.20;;;3.00;;
6249;SDS011;3158;52.148;11.568;2022-10-22T00:49:43;2.70;;;2.60;;
6249;SDS011;3158;52.148;11.568;2022-10-22T00:54:44;2.80;;;2.63;;
6249;SDS011;3158;52.148;11.568;2022-10-22T00:59:46;3.13;;;2.85;;
6249;SDS011;3158;52.148;11.568;2022-10-22T01:04:47;3.60;;;3.35;;
6249;SDS011;3158;52.148;11.568;2022-10-22T01:09:55;3.05;;;2.85;;
6249;SDS011;3158;52.148;11.568;2022-10-22T01:25:25;2.95;;;2.75;;
6249;SDS011;3158;52.148;11.568;2022-10-22T01:30:30;3.78;;;3.58;;
6249;SDS011;3158;52.148;11.568;2022-10-22T01:35:39;3.58;;;3.38;;
6249;SDS011;3158;52.148;11.568;2022-10-22T01:40:41;2.55;;;2.35;;
6249;SDS011;3158;52.148;11.568;2022-10-22T01:45:45;3.08;;;2.92;;
6249;SDS011;3158;52.148;11.568;2022-10-22T01:56:18;2.88;;;2.70;;
6249;SDS011;3158;52.148;11.568;2022-10-22T02:06:23;3.03;;;2.83;;
6249;SDS011;3158;52.148;11.568;2022-10-22T02:11:25;6.05;;;2.63;;
6249;SDS011;3158;52.148;11.568;2022-10-22T02:16:45;2.90;;;2.80;;
6249;SDS011;3158;52.148;11.568;2022-10-22T02:21:47;2.20;;;2.10;;
6249;SDS011;3158;52.148;11.568;2022-10-22T02:26:54;2.78;;;2.58;;
6249;SDS011;3158;52.148;11.568;2022-10-22T02:31:57;3.38;;;3.15;;
6249;SDS011;3158;52.148;11.568;2022-10-22T02:36:59;2.67;;;2.55;;
6249;SDS011;3158;52.148;11.568;2022-10-22T02:42:01;2.38;;;2.28;;
6249;SDS011;3158;52.148;11.568;2022-10-22T02:47:02;4.97;;;3.90;;
6249;SDS011;3158;52.148;11.568;2022-10-22T02:52:04;3.03;;;2.88;;
6249;SDS011;3158;52.148;11.568;2022-10-22T02:57:05;3.53;;;3.10;;
6249;SDS011;3158;52.148;11.568;2022-10-22T03:02:06;3.72;;;3.42;;
6249;SDS011;3158;52.148;11.568;2022-10-22T03:07:07;4.32;;;4.03;;
6249;SDS011;3158;52.148;11.568;2022-10-22T03:12:08;3.95;;;3.67;;
6249;SDS011;3158;52.148;11.568;2022-10-22T03:17:09;3.83;;;3.63;;
6249;SDS011;3158;52.148;11.568;2022-10-22T03:22:20;2.88;;;2.67;;
6249;SDS011;3158;52.148;11.568;2022-10-22T03:27:22;3.70;;;3.45;;
6249;SDS011;3158;52.148;11.568;2022-10-22T03:32:24;2.58;;;2.45;;
6249;SDS011;3158;52.148;11.568;2022-10-22T03:37:25;4.47;;;4.10;;
6249;SDS011;3158;52.148;11.568;2022-10-22T03:42:26;3.25;;;3.08;;
6249;SDS011;3158;52.148;11.568;2022-10-22T03:47:27;3.75;;;3.40;;
6249;SDS011;3158;52.148;11.568;2022-10-22T03:52:33;3.38;;;3.05;;
6249;SDS011;3158;52.148;11.568;2022-10-22T03:57:35;3.70;;;3.40;;
6249;SDS011;3158;52.148;11.568;2022-10-22T04:02:36;3.55;;;3.33;;
6249;SDS011;3158;52.148;11.568;2022-10-22T04:07:37;4.50;;;4.10;;
6249;SDS011;3158;52.148;11.568;2022-10-22T04:12:38;4.30;;;4.00;;
6249;SDS011;3158;52.148;11.568;2022-10-22T04:17:39;3.45;;;3.25;;
6249;SDS011;3158;52.148;11.568;2022-10-22T04:22:40;3.53;;;3.22;;
6249;SDS011;3158;52.148;11.568;2022-10-22T04:27:41;4.70;;;4.40;;
6249;SDS011;3158;52.148;11.568;2022-10-22T04:32:42;3.83;;;3.53;;
6249;SDS011;3158;52.148;11.568;2022-10-22T04:37:43;3.70;;;3.58;;
6249;SDS011;3158;52.148;11.568;2022-10-22T04:42:44;3.95;;;3.75;;
6249;SDS011;3158;52.148;11.568;2022-10-22T04:47:46;4.13;;;3.78;;
6249;SDS011;3158;52.148;11.568;2022-10-22T04:52:47;4.15;;;3.88;;
6249;SDS011;3158;52.148;11.568;2022-10-22T04:57:48;4.18;;;3.80;;
6249;SDS011;3158;52.148;11.568;2022-10-22T05:02:49;4.30;;;3.97;;
6249;SDS011;3158;52.148;11.568;2022-10-22T05:07:50;4.57;;;4.18;;
6249;SDS011;3158;52.148;11.568;2022-10-22T05:12:51;4.50;;;4.10;;
6249;SDS011;3158;52.148;11.568;2022-10-22T05:17:53;4.07;;;3.80;;
6249;SDS011;3158;52.148;11.568;2022-10-22T05:22:54;3.65;;;3.40;;
6249;SDS011;3158;52.148;11.568;2022-10-22T05:27:55;4.07;;;3.60;;
6249;SDS011;3158;52.148;11.568;2022-10-22T05:32:56;6.60;;;3.95;;
6249;SDS011;3158;52.148;11.568;2022-10-22T05:37:57;3.67;;;3.47;;
6249;SDS011;3158;52.148;11.568;2022-10-22T05:42:58;3.15;;;3.03;;
6249;SDS011;3158;52.148;11.568;2022-10-22T05:47:59;4.10;;;3.47;;
6249;SDS011;3158;52.148;11.568;2022-10-22T05:53:00;3.63;;;3.40;;
6249;SDS011;3158;52.148;11.568;2022-10-22T05:58:02;4.03;;;3.72;;
6249;SDS011;3158;52.148;11.568;2022-10-22T06:03:03;3.45;;;3.25;;
6249;SDS011;3158;52.148;11.568;2022-10-22T06:08:05;3.70;;;3.50;;
6249;SDS011;3158;52.148;11.568;2022-10-22T06:13:06;3.35;;;3.22;;
6249;SDS011;3158;52.148;11.568;2022-10-22T06:18:07;4.13;;;3.78;;
6249;SDS011;3158;52.148;11.568;2022-10-22T06:23:08;5.45;;;4.20;;
6249;SDS011;3158;52.148;11.568;2022-10-22T06:28:09;4.20;;;3.90;;
6249;SDS011;3158;52.148;11.568;2022-10-22T06:33:10;5.80;;;3.88;;
6249;SDS011;3158;52.148;11.568;2022-10-22T06:38:11;5.70;;;4.00;;
6249;SDS011;3158;52.148;11.568;2022-10-22T06:43:13;4.00;;;3.60;;
6249;SDS011;3158;52.148;11.568;2022-10-22T06:48:14;4.88;;;4.15;;
6249;SDS011;3158;52.148;11.568;2022-10-22T06:53:15;5.65;;;5.10;;
6249;SDS011;3158;52.148;11.568;2022-10-22T06:58:16;5.28;;;4.88;;
6249;SDS011;3158;52.148;11.568;2022-10-22T07:03:18;4.50;;;4.10;;
6249;SDS011;3158;52.148;11.568;2022-10-22T07:08:19;3.70;;;3.40;;
6249;SDS011;3158;52.148;11.568;2022-10-22T07:13:20;5.00;;;4.40;;
6249;SDS011;3158;52.148;11.568;2022-10-22T07:18:21;4.05;;;3.78;;
6249;SDS011;3158;52.148;11.568;2022-10-22T07:23:23;3.72;;;3.53;;
6249;SDS011;3158;52.148;11.568;2022-10-22T07:28:24;4.13;;;3.83;;
6249;SDS011;3158;52.148;11.568;2022-10-22T07:33:27;5.10;;;3.20;;
6249;SDS011;3158;52.148;11.568;2022-10-22T07:38:28;5.22;;;3.97;;
6249;SDS011;3158;52.148;11.568;2022-10-22T07:43:30;4.82;;;4.22;;
6249;SDS011;3158;52.148;11.568;2022-10-22T07:48:31;5.22;;;4.72;;
6249;SDS011;3158;52.148;11.568;2022-10-22T07:53:32;6.43;;;4.80;;
6249;SDS011;3158;52.148;11.568;2022-10-22T07:58:34;5.80;;;5.30;;
6249;SDS011;3158;52.148;11.568;2022-10-22T08:03:35;4.95;;;4.47;;
6249;SDS011;3158;52.148;11.568;2022-10-22T08:08:36;4.53;;;4.18;;
6249;SDS011;3158;52.148;11.568;2022-10-22T08:13:37;5.97;;;5.38;;
6249;SDS011;3158;52.148;11.568;2022-10-22T08:18:38;8.27;;;5.28;;
6249;SDS011;3158;52.148;11.568;2022-10-22T08:23:39;7.03;;;5.32;;
6249;SDS011;3158;52.148;11.568;2022-10-22T08:28:40;6.88;;;5.47;;
6249;SDS011;3158;52.148;11.568;2022-10-22T08:33:41;7.20;;;5.63;;
6249;SDS011;3158;52.148;11.568;2022-10-22T08:38:43;6.05;;;5.38;;
6249;SDS011;3158;52.148;11.568;2022-10-22T08:48:57;7.22;;;5.13;;
6249;SDS011;3158;52.148;11.568;2022-10-22T08:59:22;4.78;;;4.40;;
6249;SDS011;3158;52.148;11.568;2022-10-22T09:04:30;9.60;;;5.13;;
6249;SDS011;3158;52.148;11.568;2022-10-22T09:09:35;5.25;;;4.80;;
6249;SDS011;3158;52.148;11.568;2022-10-22T09:14:38;5.43;;;4.93;;
6249;SDS011;3158;52.148;11.568;2022-10-22T09:25:17;3.70;;;3.45;;
6249;SDS011;3158;52.148;11.568;2022-10-22T09:30:21;6.13;;;3.63;;
6249;SDS011;3158;52.148;11.568;2022-10-22T09:35:22;3.97;;;2.63;;
6249;SDS011;3158;52.148;11.568;2022-10-22T09:40:24;3.72;;;2.90;;
6249;SDS011;3158;52.148;11.568;2022-10-22T09:45:25;5.43;;;3.25;;
6249;SDS011;3158;52.148;11.568;2022-10-22T09:50:27;3.10;;;2.60;;
6249;SDS011;3158;52.148;11.568;2022-10-22T09:55:30;2.45;;;2.35;;
6249;SDS011;3158;52.148;11.568;2022-10-22T10:00:31;1.85;;;1.85;;
6249;SDS011;3158;52.148;11.568;2022-10-22T10:05:33;1.50;;;1.40;;
6249;SDS011;3158;52.148;11.568;2022-10-22T10:10:47;1.10;;;1.00;;
6249;SDS011;3158;52.148;11.568;2022-10-22T10:15:54;3.10;;;0.90;;
6249;SDS011;3158;52.148;11.568;2022-10-22T10:21:01;5.05;;;1.10;;
6249;SDS011;3158;52.148;11.568;2022-10-22T10:26:06;0.60;;;0.60;;
6249;SDS011;3158;52.148;11.568;2022-10-22T10:31:13;1.95;;;0.90;;
6249;SDS011;3158;52.148;11.568;2022-10-22T10:51:30;1.27;;;0.40;;
6249;SDS011;3158;52.148;11.568;2022-10-22T10:56:44;4.18;;;0.40;;
6249;SDS011;3158;52.148;11.568;2022-10-22T11:06:46;4.53;;;0.43;;
6249;SDS011;3158;52.148;11.568;2022-10-22T11:11:53;0.40;;;0.40;;
6249;SDS011;3158;52.148;11.568;2022-10-22T11:16:57;2.47;;;1.55;;
6249;SDS011;3158;52.148;11.568;2022-10-22T11:22:05;0.43;;;0.43;;
6249;SDS011;3158;52.148;11.568;2022-10-22T11:27:44;1.60;;;0.50;;
6249;SDS011;3158;52.148;11.568;2022-10-22T11:32:36;3.53;;;0.50;;
6249;SDS011;3158;52.148;11.568;2022-10-22T11:37:39;0.82;;;0.40;;
6249;SDS011;3158;52.148;11.568;2022-10-22T11:42:44;2.45;;;0.80;;
6249;SDS011;3158;52.148;11.568;2022-10-22T11:53:01;0.65;;;0.60;;
6249;SDS011;3158;52.148;11.568;2022-10-22T11:58:09;4.03;;;0.57;;
6249;SDS011;3158;52.148;11.568;2022-10-22T12:08:28;1.15;;;0.50;;
6249;SDS011;3158;52.148;11.568;2022-10-22T12:13:54;1.75;;;0.60;;
6249;SDS011;3158;52.148;11.568;2022-10-22T12:19:43;1.10;;;1.10;;
6249;SDS011;3158;52.148;11.568;2022-10-22T12:24:19;2.85;;;0.95;;
6249;SDS011;3158;52.148;11.568;2022-10-22T12:29:20;1.10;;;0.80;;
6249;SDS011;3158;52.148;11.568;2022-10-22T12:34:23;3.00;;;0.82;;
6249;SDS011;3158;52.148;11.568;2022-10-22T12:39:25;1.85;;;0.98;;
6249;SDS011;3158;52.148;11.568;2022-10-22T12:44:26;2.55;;;1.25;;
6249;SDS011;3158;52.148;11.568;2022-10-22T12:49:48;3.05;;;0.70;;
6249;SDS011;3158;52.148;11.568;2022-10-22T12:54:49;1.45;;;1.08;;
6249;SDS011;3158;52.148;11.568;2022-10-22T12:59:51;0.98;;;0.98;;
6249;SDS011;3158;52.148;11.568;2022-10-22T13:10:14;2.95;;;0.68;;
6249;SDS011;3158;52.148;11.568;2022-10-22T13:20:30;3.10;;;0.90;;
6249;SDS011;3158;52.148;11.568;2022-10-22T13:25:32;3.22;;;0.63;;
6249;SDS011;3158;52.148;11.568;2022-10-22T13:30:34;0.98;;;0.60;;
6249;SDS011;3158;52.148;11.568;2022-10-22T13:35:36;0.95;;;0.60;;
6249;SDS011;3158;52.148;11.568;2022-10-22T13:40:38;1.25;;;0.50;;
6249;SDS011;3158;52.148;11.568;2022-10-22T13:45:39;2.25;;;0.60;;
6249;SDS011;3158;52.148;11.568;2022-10-22T13:50:40;1.23;;;0.68;;
6249;SDS011;3158;52.148;11.568;2022-10-22T13:55:41;3.97;;;0.50;;
6249;SDS011;3158;52.148;11.568;2022-10-22T14:00:45;1.10;;;0.63;;
6249;SDS011;3158;52.148;11.568;2022-10-22T14:05:47;1.75;;;0.70;;
6249;SDS011;3158;52.148;11.568;2022-10-22T14:10:48;0.50;;;0.47;;
6249;SDS011;3158;52.148;11.568;2022-10-22T14:15:50;0.95;;;0.80;;
6249;SDS011;3158;52.148;11.568;2022-10-22T14:20:52;2.38;;;0.65;;
6249;SDS011;3158;52.148;11.568;2022-10-22T14:25:54;4.22;;;0.50;;
6249;SDS011;3158;52.148;11.568;2022-10-22T14:30:56;0.95;;;0.75;;
6249;SDS011;3158;52.148;11.568;2022-10-22T14:35:57;1.58;;;0.70;;
6249;SDS011;3158;52.148;11.568;2022-10-22T14:40:59;0.82;;;0.60;;
6249;SDS011;3158;52.148;11.568;2022-10-22T14:46:00;0.60;;;0.60;;
6249;SDS011;3158;52.148;11.568;2022-10-22T14:51:01;1.35;;;0.50;;
6249;SDS011;3158;52.148;11.568;2022-10-22T14:56:02;0.60;;;0.60;;
6249;SDS011;3158;52.148;11.568;2022-10-22T15:01:03;0.75;;;0.75;;
6249;SDS011;3158;52.148;11.568;2022-10-22T15:06:04;1.98;;;0.60;;
6249;SDS011;3158;52.148;11.568;2022-10-22T15:11:06;2.60;;;0.55;;
6249;SDS011;3158;52.148;11.568;2022-10-22T15:16:08;4.68;;;0.65;;
6249;SDS011;3158;52.148;11.568;2022-10-22T15:21:13;1.33;;;0.50;;
6249;SDS011;3158;52.148;11.568;2022-10-22T15:26:15;1.95;;;0.85;;
6249;SDS011;3158;52.148;11.568;2022-10-22T15:31:16;7.00;;;0.90;;
6249;SDS011;3158;52.148;11.568;2022-10-22T15:36:37;0.50;;;0.50;;
6249;SDS011;3158;52.148;11.568;2022-10-22T15:41:39;0.47;;;0.47;;
6249;SDS011;3158;52.148;11.568;2022-10-22T15:46:40;1.13;;;0.90;;
6249;SDS011;3158;52.148;11.568;2022-10-22T15:51:41;0.70;;;0.70;;
6249;SDS011;3158;52.148;11.568;2022-10-22T15:56:43;0.98;;;0.90;;
6249;SDS011;3158;52.148;11.568;2022-10-22T16:01:44;3.08;;;1.50;;
6249;SDS011;3158;52.148;11.568;2022-10-22T16:06:46;2.67;;;2.47;;
6249;SDS011;3158;52.148;11.568;2022-10-22T16:11:48;1.90;;;1.75;;
6249;SDS011;3158;52.148;11.568;2022-10-22T16:16:50;3.33;;;2.78;;
6249;SDS011;3158;52.148;11.568;2022-10-22T16:21:53;1.30;;;1.30;;
6249;SDS011;3158;52.148;11.568;2022-10-22T16:26:54;1.52;;;1.42;;
6249;SDS011;3158;52.148;11.568;2022-10-22T16:31:55;1.85;;;1.33;;
6249;SDS011;3158;52.148;11.568;2022-10-22T16:36:57;5.30;;;2.42;;
6249;SDS011;3158;52.148;11.568;2022-10-22T16:41:58;2.10;;;2.00;;
6249;SDS011;3158;52.148;11.568;2022-10-22T16:46:59;2.30;;;1.13;;
6249;SDS011;3158;52.148;11.568;2022-10-22T16:52:00;0.75;;;0.63;;
6249;SDS011;3158;52.148;11.568;2022-10-22T16:57:01;1.63;;;1.23;;
6249;SDS011;3158;52.148;11.568;2022-10-22T17:02:02;1.10;;;0.50;;
6249;SDS011;3158;52.148;11.568;2022-10-22T17:07:03;1.85;;;0.70;;
6249;SDS011;3158;52.148;11.568;2022-10-22T17:12:04;1.60;;;0.90;;
6249;SDS011;3158;52.148;11.568;2022-10-22T17:17:05;0.80;;;0.80;;
6249;SDS011;3158;52.148;11.568;2022-10-22T17:22:07;3.10;;;1.42;;
6249;SDS011;3158;52.148;11.568;2022-10-22T17:27:08;6.90;;;1.48;;
6249;SDS011;3158;52.148;11.568;2022-10-22T17:32:09;1.40;;;1.23;;
6249;SDS011;3158;52.148;11.568;2022-10-22T17:37:10;1.38;;;1.30;;
6249;SDS011;3158;52.148;11.568;2022-10-22T17:42:12;1.95;;;0.88;;
6249;SDS011;3158;52.148;11.568;2022-10-22T17:47:13;0.98;;;0.98;;
6249;SDS011;3158;52.148;11.568;2022-10-22T17:52:14;0.77;;;0.77;;
6249;SDS011;3158;52.148;11.568;2022-10-22T17:57:16;1.25;;;1.10;;
6249;SDS011;3158;52.148;11.568;2022-10-22T18:02:17;4.22;;;1.05;;
6249;SDS011;3158;52.148;11.568;2022-10-22T18:07:18;3.92;;;1.27;;
6249;SDS011;3158;52.148;11.568;2022-10-22T18:12:20;1.02;;;0.82;;
6249;SDS011;3158;52.148;11.568;2022-10-22T18:17:21;1.75;;;1.15;;
6249;SDS011;3158;52.148;11.568;2022-10-22T18:22:22;3.15;;;1.42;;
6249;SDS011;3158;52.148;11.568;2022-10-22T18:27:23;1.48;;;1.40;;
6249;SDS011;3158;52.148;11.568;2022-10-22T18:32:24;3.30;;;2.08;;
6249;SDS011;3158;52.148;11.568;2022-10-22T18:37:25;1.55;;;1.45;;
6249;SDS011;3158;52.148;11.568;2022-10-22T18:42:26;1.55;;;1.42;;
6249;SDS011;3158;52.148;11.568;2022-10-22T18:47:28;3.67;;;2.85;;
6249;SDS011;3158;52.148;11.568;2022-10-22T18:52:29;1.90;;;1.80;;
6249;SDS011;3158;52.148;11.568;2022-10-22T18:57:30;2.42;;;2.33;;
6249;SDS011;3158;52.148;11.568;2022-10-22T19:02:31;8.20;;;4.40;;
6249;SDS011;3158;52.148;11.568;2022-10-22T19:07:32;6.10;;;3.42;;
6249;SDS011;3158;52.148;11.568;2022-10-22T19:12:35;3.22;;;2.90;;
6249;SDS011;3158;52.148;11.568;2022-10-22T19:17:36;2.53;;;2.25;;
6249;SDS011;3158;52.148;11.568;2022-10-22T19:22:37;7.13;;;5.43;;
6249;SDS011;3158;52.148;11.568;2022-10-22T19:27:38;2.60;;;2.42;;
6249;SDS011;3158;52.148;11.568;2022-10-22T19:32:39;1.92;;;1.63;;
6249;SDS011;3158;52.148;11.568;2022-10-22T19:37:41;1.77;;;1.65;;
6249;SDS011;3158;52.148;11.568;2022-10-22T19:42:42;4.72;;;1.45;;
6249;SDS011;3158;52.148;11.568;2022-10-22T19:47:46;2.10;;;2.00;;
6249;SDS011;3158;52.148;11.568;2022-10-22T19:52:47;1.83;;;1.73;;
6249;SDS011;3158;52.148;11.568;2022-10-22T19:57:50;2.85;;;1.58;;
6249;SDS011;3158;52.148;11.568;2022-10-22T20:02:51;1.60;;;1.58;;
6249;SDS011;3158;52.148;11.568;2022-10-22T20:07:52;4.78;;;1.90;;
6249;SDS011;3158;52.148;11.568;2022-10-22T20:12:53;3.13;;;1.60;;
6249;SDS011;3158;52.148;11.568;2022-10-22T20:17:54;3.28;;;2.08;;
6249;SDS011;3158;52.148;11.568;2022-10-22T20:22:56;1.50;;;1.45;;
6249;SDS011;3158;52.148;11.568;2022-10-22T20:27:57;4.97;;;3.03;;
6249;SDS011;3158;52.148;11.568;2022-10-22T20:32:58;3.60;;;3.28;;
6249;SDS011;3158;52.148;11.568;2022-10-22T20:37:59;3.85;;;3.00;;
6249;SDS011;3158;52.148;11.568;2022-10-22T20:43:00;4.18;;;2.42;;
6249;SDS011;3158;52.148;11.568;2022-10-22T20:48:01;2.22;;;2.17;;
6249;SDS011;3158;52.148;11.568;2022-10-22T20:53:03;2.40;;;2.30;;
6249;SDS011;3158;52.148;11.568;2022-10-22T20:58:05;3.95;;;2.38;;
6249;SDS011;3158;52.148;11.568;2022-10-22T21:03:06;4.63;;;2.40;;
6249;SDS011;3158;52.148;11.568;2022-10-22T21:08:07;3.17;;;2.97;;
6249;SDS011;3158;52.148;11.568;2022-10-22T21:13:09;8.32;;;2.78;;
6249;SDS011;3158;52.148;11.568;2022-10-22T21:18:11;3.15;;;2.95;;
6249;SDS011;3158;52.148;11.568;2022-10-22T21:23:12;2.85;;;2.72;;
6249;SDS011;3158;52.148;11.568;2022-10-22T21:28:13;6.28;;;2.78;;
6249;SDS011;3158;52.148;11.568;2022-10-22T21:33:14;2.50;;;2.20;;
6249;SDS011;3158;52.148;11.568;2022-10-22T21:38:15;3.83;;;3.00;;
6249;SDS011;3158;52.148;11.568;2022-10-22T21:43:17;3.03;;;2.83;;
6249;SDS011;3158;52.148;11.568;2022-10-22T21:48:18;3.13;;;2.90;;
6249;SDS011;3158;52.148;11.568;2022-10-22T21:53:19;3.45;;;3.17;;
6249;SDS011;3158;52.148;11.568;2022-10-22T21:58:20;2.30;;;2.20;;
6249;SDS011;3158;52.148;11.568;2022-10-22T22:03:21;2.67;;;2.55;;
6249;SDS011;3158;52.148;11.568;2022-10-22T22:08:23;5.38;;;2.70;;
6249;SDS011;3158;52.148;11.568;2022-10-22T22:13:24;4.25;;;2.00;;
6249;SDS011;3158;52.148;11.568;2022-10-22T22:18:25;2.42;;;2.33;;
6249;SDS011;3158;52.148;11.568;2022-10-22T22:23:26;2.70;;;2.50;;
6249;SDS011;3158;52.148;11.568;2022-10-22T22:28:27;3.33;;;2.30;;
6249;SDS011;3158;52.148;11.568;2022-10-22T22:33:29;2.25;;;2.13;;
6249;SDS011;3158;52.148;11.568;2022-10-22T22:38:30;2.60;;;2.20;;
6249;SDS011;3158;52.148;11.568;2022-10-22T22:43:31;3.50;;;2.33;;
6249;SDS011;3158;52.148;11.568;2022-10-22T22:48:32;3.63;;;2.92;;
6249;SDS011;3158;52.148;11.568;2022-10-22T22:53:34;2.20;;;2.10;;
6249;SDS011;3158;52.148;11.568;2022-10-22T22:58:36;2.80;;;2.10;;
6249;SDS011;3158;52.148;11.568;2022-10-22T23:03:37;2.50;;;2.35;;
6249;SDS011;3158;52.148;11.568;2022-10-22T23:08:39;2.20;;;2.10;;
6249;SDS011;3158;52.148;11.568;2022-10-22T23:13:40;3.30;;;3.00;;
6249;SDS011;3158;52.148;11.568;2022-10-22T23:18:42;7.03;;;2.80;;
6249;SDS011;3158;52.148;11.568;2022-10-22T23:23:44;2.50;;;2.40;;
6249;SDS011;3158;52.148;11.568;2022-10-22T23:28:46;2.63;;;2.42;;
6249;SDS011;3158;52.148;11.568;2022-10-22T23:33:47;2.85;;;2.65;;
6249;SDS011;3158;52.148;11.568;2022-10-22T23:38:48;3.50;;;2.50;;
6249;SDS011;3158;52.148;11.568;2022-10-22T23:43:49;4.28;;;2.63;;
6249;SDS011;3158;52.148;11.568;2022-10-22T23:48:50;2.92;;;2.38;;
6249;SDS011;3158;52.148;11.568;2022-10-22T23:53:54;3.92;;;3.33;;
6249;SDS011;3158;52.148;11.568;2022-10-22T23:58:55;2.50;;;2.30;;
